This is the latest recevied weather packets stored in our database for station/object KD4WXI. If no packets are shown the sender has not sent any weather packets the latest 10 day(s).
| Time | Temp. | Humidity | Pressure | Rain* | Wind** | Luminosity | Snow |
|---|---|---|---|---|---|---|---|
| 1777576434 | 23.33° C | 47% | 1010.3 hPa | 0 mm | - | 739 W/m² | - |
| 1777576132 | 24.44° C | 44% | 1010 hPa | 0 mm | - | 109 W/m² | - |
| 1777575826 | 25° C | 44% | 1010.4 hPa | 0 mm | - | 684 W/m² | - |
| 1777575524 | 24.44° C | 43% | 1010.2 hPa | 0 mm | - | 700 W/m² | - |
| 1777575219 | 23.89° C | 42% | 1010.5 hPa | 0 mm | - | 725 W/m² | - |
| 1777574915 | 25° C | 38% | 1010.6 hPa | 0 mm | - | 136 W/m² | - |
| 1777574612 | 25° C | 38% | 1010.4 hPa | 0 mm | - | 766 W/m² | - |
| 1777574308 | 23.89° C | 42% | 1010.6 hPa | 0 mm | - | 783 W/m² | - |
| 1777574004 | 23.89° C | 51% | 1010.4 hPa | 0 mm | - | 280 W/m² | - |
| 1777573698 | 22.22° C | 51% | 1010.4 hPa | 0 mm | - | 795 W/m² | - |
| 1777573395 | 23.33° C | 48% | 1010.6 hPa | 0 mm | - | 277 W/m² | - |
| 1777573091 | 23.89° C | 52% | 1010.7 hPa | 0 mm | - | 717 W/m² | - |
| 1777572788 | 23.89° C | 52% | 1010.5 hPa | 0 mm | - | 546 W/m² | - |
| 1777572489 | 22.78° C | 54% | 1010.7 hPa | 0 mm | - | 817 W/m² | - |
| 1777572184 | 21.67° C | 55% | 1010.7 hPa | 0 mm | - | 839 W/m² | - |
| 1777571880 | 20.56° C | 58% | 1010.7 hPa | 0 mm | - | 134 W/m² | - |
| 1777571575 | 21.11° C | 60% | 1010.9 hPa | 0 mm | - | 115 W/m² | - |
| 1777571273 | 21.67° C | 57% | 1010.8 hPa | 0 mm | - | 112 W/m² | - |
| 1777570969 | 22.78° C | 55% | 1010.6 hPa | 0 mm | - | 139 W/m² | - |
| 1777570665 | 22.78° C | 52% | 1010.7 hPa | 0 mm | - | 162 W/m² | - |
| 1777570362 | 22.78° C | 51% | 1010.7 hPa | 0 mm | - | 158 W/m² | - |
| 1777570057 | 22.78° C | 51% | 1010.7 hPa | 0 mm | - | 846 W/m² | - |
| 1777569753 | 22.78° C | 54% | 1010.9 hPa | 0 mm | - | 807 W/m² | - |
| 1777569448 | 22.78° C | 53% | 1010.9 hPa | 0 mm | - | 777 W/m² | - |
| 1777569146 | 21.11° C | 61% | 1010.9 hPa | 0 mm | - | 811 W/m² | - |
* Rain latest hour (hover to see other rain measurements)
** Current wind speed in m/s (hover to see current wind gust speed)